createdAt,value
2022-10-26T00:02:22.953Z,12.50
2022-10-26T00:07:15.576Z,7.70
2022-10-26T00:12:09.792Z,8.60
2022-10-26T00:17:02.324Z,9.53
2022-10-26T00:21:54.871Z,10.07
2022-10-26T00:26:48.176Z,8.53
2022-10-26T00:31:42.095Z,8.07
2022-10-26T00:36:34.637Z,6.90
2022-10-26T00:41:28.172Z,9.80
2022-10-26T00:46:22.823Z,10.20
2022-10-26T00:51:19.889Z,7.07
2022-10-26T00:56:12.475Z,5.50
2022-10-26T01:01:05.034Z,9.13
2022-10-26T01:05:58.576Z,7.27
2022-10-26T01:10:52.821Z,9.03
2022-10-26T01:15:55.634Z,8.00
2022-10-26T01:21:21.331Z,6.83
2022-10-26T01:26:24.570Z,7.67
2022-10-26T01:31:21.979Z,8.23
2022-10-26T01:36:15.630Z,9.00
2022-10-26T01:41:11.463Z,9.80
2022-10-26T01:46:05.017Z,10.27
2022-10-26T01:50:59.280Z,9.23
2022-10-26T01:55:52.435Z,9.00
2022-10-26T02:00:50.624Z,12.00
2022-10-26T02:05:49.357Z,9.90
2022-10-26T02:10:47.272Z,9.97
2022-10-26T02:15:43.051Z,10.17
2022-10-26T02:20:37.082Z,13.80
2022-10-26T02:25:31.680Z,12.93
2022-10-26T02:30:25.688Z,7.07
2022-10-26T02:35:20.497Z,9.27
2022-10-26T02:40:15.325Z,12.90
2022-10-26T02:45:11.029Z,13.73
2022-10-26T02:50:05.310Z,8.90
2022-10-26T02:55:00.759Z,9.07
2022-10-26T02:59:54.063Z,8.10
2022-10-26T03:04:46.617Z,7.20
2022-10-26T03:09:40.580Z,6.53
2022-10-26T03:14:33.076Z,7.43
2022-10-26T03:19:25.869Z,7.03
2022-10-26T03:24:18.413Z,8.60
2022-10-26T03:29:12.257Z,7.13
2022-10-26T03:34:04.940Z,5.90
2022-10-26T03:38:57.564Z,3.77
2022-10-26T03:43:50.078Z,4.87
2022-10-26T03:48:43.956Z,8.27
2022-10-26T03:53:36.474Z,3.67
2022-10-26T03:58:29.026Z,4.30
2022-10-26T04:03:21.592Z,4.30
2022-10-26T04:08:15.677Z,4.97
2022-10-26T04:13:10.379Z,4.07
2022-10-26T04:18:05.666Z,7.53
2022-10-26T04:22:59.106Z,6.40
2022-10-26T04:27:53.506Z,4.20
2022-10-26T04:32:46.121Z,3.50
2022-10-26T04:37:38.804Z,5.10
2022-10-26T04:42:33.944Z,6.20
2022-10-26T04:47:27.832Z,5.13
2022-10-26T04:52:22.455Z,3.80
2022-10-26T04:57:14.973Z,4.23
2022-10-26T05:02:07.650Z,7.17
2022-10-26T05:07:01.520Z,4.00
2022-10-26T05:11:53.988Z,5.20
2022-10-26T05:16:46.518Z,3.50
2022-10-26T05:21:39.215Z,4.90
2022-10-26T05:26:33.077Z,4.87
2022-10-26T05:31:25.577Z,5.73
2022-10-26T05:36:18.248Z,4.63
2022-10-26T05:41:10.798Z,7.63
2022-10-26T05:46:04.738Z,11.80
2022-10-26T05:50:59.569Z,6.73
2022-10-26T05:55:52.281Z,5.50
2022-10-26T06:00:50.613Z,5.37
2022-10-26T06:05:52.185Z,12.73
2022-10-26T06:10:44.993Z,8.03
2022-10-26T06:15:41.118Z,7.23
2022-10-26T06:20:40.986Z,7.73
2022-10-26T06:25:40.990Z,9.17
2022-10-26T06:30:33.507Z,18.73
2022-10-26T06:35:29.129Z,19.50
2022-10-26T06:40:22.292Z,8.20
2022-10-26T06:45:17.309Z,7.00
2022-10-26T06:50:13.937Z,13.53
2022-10-26T06:55:06.947Z,10.23
2022-10-26T07:00:00.891Z,5.93
2022-10-26T07:04:54.762Z,8.60
2022-10-26T07:09:47.389Z,5.73
2022-10-26T07:14:39.975Z,8.37
2022-10-26T07:19:32.640Z,9.43
2022-10-26T07:24:26.801Z,9.70
2022-10-26T07:29:19.345Z,7.87
2022-10-26T07:34:11.942Z,12.67
2022-10-26T07:39:04.604Z,6.03
2022-10-26T07:43:58.653Z,6.63
2022-10-26T07:48:51.155Z,6.23
2022-10-26T07:53:43.719Z,10.27
2022-10-26T07:58:36.355Z,6.00
2022-10-26T08:03:30.190Z,6.83
2022-10-26T08:08:22.937Z,8.73
2022-10-26T08:13:15.953Z,9.70
2022-10-26T08:18:08.503Z,13.33
2022-10-26T08:23:03.981Z,8.70
2022-10-26T08:27:57.300Z,10.80
2022-10-26T08:32:50.055Z,5.20
2022-10-26T08:37:42.813Z,6.43
2022-10-26T08:42:39.026Z,7.33
2022-10-26T08:47:33.750Z,8.20
2022-10-26T08:52:28.965Z,8.30
2022-10-26T08:57:23.414Z,8.93
2022-10-26T09:02:18.004Z,8.63
2022-10-26T09:07:15.423Z,8.70
2022-10-26T09:12:11.820Z,5.70
2022-10-26T09:17:08.408Z,10.20
2022-10-26T09:22:05.112Z,10.43
2022-10-26T09:27:00.101Z,9.00
2022-10-26T09:31:52.687Z,11.63
2022-10-26T09:36:45.361Z,10.57
2022-10-26T09:41:40.812Z,7.73
2022-10-26T09:46:35.761Z,12.17
2022-10-26T09:51:28.417Z,17.93
2022-10-26T09:56:20.988Z,6.80
2022-10-26T10:01:23.703Z,9.10
2022-10-26T10:06:17.449Z,12.30
2022-10-26T10:11:11.138Z,9.17
2022-10-26T10:16:06.049Z,8.80
2022-10-26T10:21:01.351Z,13.90
2022-10-26T10:25:59.692Z,7.97
2022-10-26T10:30:57.291Z,8.90
2022-10-26T10:35:51.805Z,8.67
2022-10-26T10:40:50.835Z,7.70
2022-10-26T10:45:47.787Z,11.03
2022-10-26T10:50:49.849Z,14.63
2022-10-26T10:55:45.272Z,9.47
2022-10-26T11:00:39.357Z,10.57
2022-10-26T11:05:37.775Z,7.57
2022-10-26T11:10:32.565Z,6.07
2022-10-26T11:15:26.813Z,12.87
2022-10-26T11:20:23.306Z,14.87
2022-10-26T11:25:19.130Z,9.73
2022-10-26T11:30:15.541Z,8.37
2022-10-26T11:35:13.363Z,10.10
2022-10-26T11:40:15.635Z,10.37
2022-10-26T11:45:11.095Z,12.20
2022-10-26T11:50:05.684Z,10.00
2022-10-26T11:55:00.488Z,9.17
2022-10-26T11:59:56.073Z,10.60
2022-10-26T12:04:51.599Z,7.10
2022-10-26T12:09:45.020Z,10.70
2022-10-26T12:14:39.947Z,14.40
2022-10-26T12:19:36.396Z,11.10
2022-10-26T12:24:30.630Z,12.07
2022-10-26T12:29:36.536Z,12.47
2022-10-26T12:34:44.026Z,10.50
2022-10-26T12:39:38.563Z,8.30
2022-10-26T12:44:35.350Z,8.23
2022-10-26T12:49:42.769Z,10.37
2022-10-26T12:54:44.848Z,10.80
2022-10-26T12:59:42.156Z,7.37
2022-10-26T13:04:49.527Z,6.80
2022-10-26T13:09:45.686Z,11.20
2022-10-26T13:14:41.650Z,8.40
2022-10-26T13:19:39.343Z,9.87
2022-10-26T13:24:33.655Z,10.73
2022-10-26T13:29:30.727Z,7.50
2022-10-26T13:34:25.974Z,8.87
2022-10-26T13:39:21.097Z,8.57
2022-10-26T13:44:18.365Z,11.30
2022-10-26T13:49:16.231Z,12.60
2022-10-26T13:54:17.020Z,11.27
2022-10-26T13:59:11.356Z,7.90
2022-10-26T14:04:15.277Z,8.90
2022-10-26T14:09:13.134Z,8.17
2022-10-26T14:14:07.113Z,7.00
2022-10-26T14:18:59.778Z,10.83
2022-10-26T14:23:55.756Z,11.50
2022-10-26T14:28:50.463Z,11.13
2022-10-26T14:33:44.375Z,8.70
2022-10-26T14:38:40.479Z,9.60
2022-10-26T14:43:33.143Z,14.03
2022-10-26T14:48:28.257Z,17.30
2022-10-26T14:53:22.711Z,14.70
2022-10-26T14:58:16.667Z,14.17
2022-10-26T15:03:15.265Z,18.47
2022-10-26T15:08:33.618Z,9.73
2022-10-26T15:13:38.173Z,8.57
2022-10-26T15:18:33.070Z,11.93
2022-10-26T15:23:26.869Z,17.60
2022-10-26T15:28:22.690Z,18.10
2022-10-26T15:33:21.930Z,11.10
2022-10-26T15:38:14.488Z,20.57
2022-10-26T15:43:11.549Z,19.90
2022-10-26T15:48:17.876Z,24.40
2022-10-26T15:53:16.459Z,11.90
2022-10-26T15:58:09.717Z,10.40
2022-10-26T16:03:03.367Z,7.60
2022-10-26T16:07:56.017Z,15.33
2022-10-26T16:12:50.632Z,25.30
2022-10-26T16:17:43.201Z,14.43
2022-10-26T16:22:38.311Z,17.40
2022-10-26T16:27:31.173Z,17.83
2022-10-26T16:32:25.034Z,17.00
2022-10-26T16:37:17.567Z,20.53
2022-10-26T16:42:10.108Z,14.90
2022-10-26T16:47:02.733Z,15.63
2022-10-26T16:51:57.508Z,21.20
2022-10-26T16:56:50.276Z,19.13
2022-10-26T17:01:42.883Z,14.37
2022-10-26T17:06:35.420Z,17.20
2022-10-26T17:11:29.316Z,21.90
2022-10-26T17:16:22.450Z,16.67
2022-10-26T17:21:16.137Z,15.00
2022-10-26T17:26:09.637Z,17.53
2022-10-26T17:31:07.750Z,19.93
2022-10-26T17:36:00.376Z,18.70
2022-10-26T17:40:52.893Z,21.87
2022-10-26T17:45:45.434Z,21.93
2022-10-26T17:50:39.310Z,24.53
2022-10-26T17:55:31.787Z,20.20
2022-10-26T18:00:24.353Z,18.40
2022-10-26T18:05:16.900Z,22.10
2022-10-26T18:10:26.242Z,18.60
2022-10-26T18:15:24.760Z,16.73
2022-10-26T18:20:17.520Z,16.37
2022-10-26T18:25:11.738Z,19.47
2022-10-26T18:30:04.372Z,17.20
2022-10-26T18:34:56.881Z,25.27
2022-10-26T18:39:49.382Z,17.23
2022-10-26T18:44:43.325Z,18.83
2022-10-26T18:49:35.825Z,17.10
2022-10-26T18:54:30.999Z,20.70
2022-10-26T18:59:24.359Z,25.63
2022-10-26T19:04:18.196Z,18.47
2022-10-26T19:09:11.058Z,19.80
2022-10-26T19:14:03.696Z,19.47
2022-10-26T19:18:56.716Z,18.70
2022-10-26T19:23:51.731Z,22.33
2022-10-26T19:28:44.281Z,21.30
2022-10-26T19:33:36.862Z,18.93
2022-10-26T19:38:29.810Z,16.47
2022-10-26T19:43:23.723Z,24.60
2022-10-26T19:48:16.255Z,23.60
2022-10-26T19:53:09.929Z,19.33
2022-10-26T19:58:02.493Z,16.73
2022-10-26T20:02:56.364Z,18.73
2022-10-26T20:07:48.927Z,21.40
2022-10-26T20:12:41.418Z,16.20
2022-10-26T20:17:35.307Z,15.63
2022-10-26T20:22:29.161Z,18.67
2022-10-26T20:27:21.697Z,17.17
2022-10-26T20:32:15.294Z,22.07
2022-10-26T20:37:08.018Z,17.87
2022-10-26T20:42:02.299Z,15.07
2022-10-26T20:46:55.070Z,14.17
2022-10-26T20:52:08.610Z,13.47
2022-10-26T20:57:06.138Z,15.47
2022-10-26T21:01:58.704Z,16.23
2022-10-26T21:06:51.253Z,15.90
2022-10-26T21:11:45.406Z,17.10
2022-10-26T21:16:39.318Z,15.43
2022-10-26T21:21:31.856Z,13.70
2022-10-26T21:26:24.404Z,17.90
2022-10-26T21:31:17.511Z,18.70
2022-10-26T21:36:12.744Z,27.40
2022-10-26T21:41:05.527Z,22.00
2022-10-26T21:45:58.325Z,19.23
2022-10-26T21:50:50.828Z,23.40
2022-10-26T21:55:44.690Z,19.70
2022-10-26T22:00:37.226Z,21.00
2022-10-26T22:05:30.030Z,24.83
2022-10-26T22:10:22.866Z,22.10
2022-10-26T22:15:16.877Z,19.60
2022-10-26T22:20:10.360Z,14.57
2022-10-26T22:25:02.928Z,18.10
2022-10-26T22:29:55.460Z,16.27
2022-10-26T22:34:50.777Z,17.30
2022-10-26T22:39:52.717Z,23.13
2022-10-26T22:44:45.272Z,24.03
2022-10-26T22:49:37.822Z,26.57
2022-10-26T22:54:31.736Z,27.63
2022-10-26T22:59:24.269Z,19.13
2022-10-26T23:04:16.815Z,18.70
2022-10-26T23:09:09.389Z,21.20
2022-10-26T23:14:03.667Z,19.93
2022-10-26T23:18:56.539Z,15.47
2022-10-26T23:23:49.058Z,17.90
2022-10-26T23:28:42.316Z,14.73
2022-10-26T23:33:36.201Z,21.73
2022-10-26T23:38:28.797Z,21.83
2022-10-26T23:43:21.629Z,26.00
2022-10-26T23:48:14.189Z,25.97
2022-10-26T23:53:08.087Z,22.73
2022-10-26T23:58:00.666Z,17.13
